createdAt,value
2019-02-15T00:00:11.453Z,1.20
2019-02-15T00:02:40.072Z,1.20
2019-02-15T00:05:08.785Z,1.30
2019-02-15T00:07:37.287Z,1.20
2019-02-15T00:10:07.321Z,1.20
2019-02-15T00:12:35.895Z,1.20
2019-02-15T00:15:05.218Z,1.20
2019-02-15T00:17:38.736Z,1.20
2019-02-15T00:20:09.909Z,1.20
2019-02-15T00:22:38.475Z,1.20
2019-02-15T00:25:07.038Z,1.20
2019-02-15T00:27:35.627Z,1.20
2019-02-15T00:30:09.489Z,1.20
2019-02-15T00:32:38.073Z,1.10
2019-02-15T00:35:07.666Z,1.10
2019-02-15T00:37:36.186Z,1.10
2019-02-15T00:40:05.711Z,1.00
2019-02-15T00:42:34.355Z,1.00
2019-02-15T00:45:03.100Z,1.00
2019-02-15T00:47:33.328Z,1.00
2019-02-15T00:50:03.697Z,1.00
2019-02-15T00:52:33.924Z,0.90
2019-02-15T00:55:04.122Z,0.90
2019-02-15T00:57:34.266Z,0.90
2019-02-15T01:00:08.086Z,0.90
2019-02-15T01:02:47.186Z,0.80
2019-02-15T01:05:26.222Z,0.80
2019-02-15T01:07:56.381Z,0.80
2019-02-15T01:10:38.967Z,0.80
2019-02-15T01:13:09.193Z,0.80
2019-02-15T01:15:37.681Z,0.80
2019-02-15T01:18:07.725Z,0.80
2019-02-15T01:20:36.562Z,0.80
2019-02-15T01:23:06.607Z,0.80
2019-02-15T01:25:36.922Z,0.80
2019-02-15T01:28:18.700Z,0.80
2019-02-15T01:30:51.210Z,0.80
2019-02-15T01:33:40.370Z,0.80
2019-02-15T01:36:19.557Z,0.70
2019-02-15T01:38:49.690Z,0.70
2019-02-15T01:41:19.896Z,0.70
2019-02-15T01:44:01.930Z,0.70
2019-02-15T01:46:32.084Z,0.80
2019-02-15T01:49:00.591Z,0.80
2019-02-15T01:51:29.153Z,0.80
2019-02-15T01:53:57.741Z,0.80
2019-02-15T01:56:27.891Z,0.80
2019-02-15T01:58:57.053Z,0.80
2019-02-15T02:01:27.260Z,0.70
2019-02-15T02:03:59.137Z,0.70
2019-02-15T02:06:28.649Z,0.60
2019-02-15T02:08:57.333Z,0.60
2019-02-15T02:11:25.900Z,0.60
2019-02-15T02:13:54.550Z,0.60
2019-02-15T02:16:23.121Z,0.60
2019-02-15T02:18:51.697Z,0.60
2019-02-15T02:21:20.517Z,0.60
2019-02-15T02:23:50.734Z,0.50
2019-02-15T02:26:19.267Z,0.50
2019-02-15T02:28:47.850Z,0.60
2019-02-15T02:31:16.518Z,0.50
2019-02-15T02:33:45.152Z,0.60
2019-02-15T02:36:14.812Z,0.60
2019-02-15T02:38:44.952Z,0.50
2019-02-15T02:41:13.520Z,0.50
2019-02-15T02:43:42.108Z,0.60
2019-02-15T02:46:10.738Z,0.50
2019-02-15T02:48:39.330Z,0.50
2019-02-15T02:51:07.906Z,0.60
2019-02-15T02:53:36.490Z,0.50
2019-02-15T02:56:05.460Z,0.50
2019-02-15T02:58:34.170Z,0.40
2019-02-15T03:01:02.742Z,0.50
2019-02-15T03:03:31.321Z,0.40
2019-02-15T03:05:59.887Z,0.40
2019-02-15T03:08:28.747Z,0.50
2019-02-15T03:10:57.321Z,0.40
2019-02-15T03:13:25.894Z,0.40
2019-02-15T03:15:54.384Z,0.30
2019-02-15T03:18:22.957Z,0.30
2019-02-15T03:20:51.454Z,0.20
2019-02-15T03:23:20.038Z,0.30
2019-02-15T03:25:48.616Z,0.30
2019-02-15T03:28:17.199Z,0.40
2019-02-15T03:30:45.770Z,0.40
2019-02-15T03:33:14.354Z,0.40
2019-02-15T03:35:44.558Z,0.40
2019-02-15T03:38:15.050Z,0.30
2019-02-15T03:40:43.679Z,0.30
2019-02-15T03:43:13.046Z,0.30
2019-02-15T03:45:43.150Z,0.30
2019-02-15T03:48:11.657Z,0.30
2019-02-15T03:50:40.150Z,0.30
2019-02-15T03:53:08.657Z,0.30
2019-02-15T03:55:37.237Z,0.20
2019-02-15T03:58:05.963Z,0.20
2019-02-15T04:00:34.603Z,0.20
2019-02-15T04:03:03.319Z,0.20
2019-02-15T04:05:31.885Z,0.10
2019-02-15T04:08:00.453Z,0.10
2019-02-15T04:10:30.103Z,0.10
2019-02-15T04:12:58.665Z,0.10
2019-02-15T04:15:27.176Z,0.10
2019-02-15T04:17:55.738Z,0.10
2019-02-15T04:20:24.322Z,0.10
2019-02-15T04:22:52.815Z,0.10
2019-02-15T04:25:21.398Z,0.10
2019-02-15T04:27:49.962Z,0.20
2019-02-15T04:30:18.564Z,0.20
2019-02-15T04:32:48.110Z,0.20
2019-02-15T04:35:17.964Z,0.20
2019-02-15T04:37:46.539Z,0.20
2019-02-15T04:40:15.225Z,0.20
2019-02-15T04:42:43.799Z,0.20
2019-02-15T04:45:14.651Z,0.20
2019-02-15T04:47:44.750Z,0.20
2019-02-15T04:50:13.331Z,0.20
2019-02-15T04:52:41.903Z,0.20
2019-02-15T04:55:10.561Z,0.20
2019-02-15T04:57:39.132Z,0.20
2019-02-15T05:00:09.769Z,0.20
2019-02-15T05:02:38.326Z,0.20
2019-02-15T05:05:07.473Z,0.20
2019-02-15T05:07:37.715Z,0.20
2019-02-15T05:10:06.462Z,0.10
2019-02-15T05:12:35.026Z,0.10
2019-02-15T05:15:03.754Z,0.10
2019-02-15T05:17:32.316Z,0.10
2019-02-15T05:20:01.449Z,0.00
2019-02-15T05:22:30.535Z,-0.10
2019-02-15T05:24:59.129Z,-0.10
2019-02-15T05:27:30.781Z,0.00
2019-02-15T05:30:00.914Z,0.00
2019-02-15T05:32:29.482Z,0.00
2019-02-15T05:34:58.069Z,-0.10
2019-02-15T05:37:26.635Z,0.00
2019-02-15T05:39:55.340Z,-0.10
2019-02-15T05:42:23.909Z,-0.10
2019-02-15T05:45:02.863Z,-0.10
2019-02-15T05:47:22.722Z,-0.10
2019-02-15T05:49:51.307Z,-0.10
2019-02-15T05:52:21.514Z,0.00
2019-02-15T05:54:50.594Z,0.00
2019-02-15T05:57:19.166Z,0.10
2019-02-15T05:59:47.686Z,0.00
2019-02-15T06:02:16.171Z,0.10
2019-02-15T06:04:44.749Z,0.10
2019-02-15T06:07:13.243Z,0.10
2019-02-15T06:09:41.828Z,0.10
2019-02-15T06:12:10.398Z,0.10
2019-02-15T06:14:40.562Z,0.00
2019-02-15T06:17:09.113Z,0.00
2019-02-15T06:19:39.215Z,0.00
2019-02-15T06:22:07.793Z,0.00
2019-02-15T06:24:36.382Z,0.10
2019-02-15T06:27:04.979Z,0.10
2019-02-15T06:29:33.651Z,0.10
2019-02-15T06:32:02.227Z,0.10
2019-02-15T06:34:30.808Z,0.10
2019-02-15T06:36:59.949Z,0.20
2019-02-15T06:39:28.466Z,0.20
2019-02-15T06:41:57.023Z,0.20
2019-02-15T06:44:25.595Z,0.20
2019-02-15T06:46:54.199Z,0.20
2019-02-15T06:49:22.857Z,0.30
2019-02-15T06:51:51.634Z,0.30
2019-02-15T06:54:20.203Z,0.30
2019-02-15T06:56:49.346Z,0.30
2019-02-15T06:59:35.771Z,0.40
2019-02-15T07:02:14.449Z,0.30
2019-02-15T07:04:53.790Z,0.40
2019-02-15T07:07:22.282Z,0.40
2019-02-15T07:09:50.778Z,0.50
2019-02-15T07:12:19.357Z,0.50
2019-02-15T07:14:48.046Z,0.50
2019-02-15T07:17:16.609Z,0.50
2019-02-15T07:19:45.267Z,0.50
2019-02-15T07:22:13.849Z,0.50
2019-02-15T07:24:44.703Z,0.50
2019-02-15T07:27:13.285Z,0.60
2019-02-15T07:29:43.505Z,0.70
2019-02-15T07:32:12.086Z,0.70
2019-02-15T07:34:40.653Z,0.80
2019-02-15T07:37:09.246Z,0.80
2019-02-15T07:39:37.809Z,0.90
2019-02-15T07:42:06.393Z,0.90
2019-02-15T07:44:35.996Z,1.00
2019-02-15T07:47:04.587Z,1.00
2019-02-15T07:49:33.427Z,1.10
2019-02-15T07:52:02.008Z,1.20
2019-02-15T07:54:30.565Z,1.20
2019-02-15T07:56:59.209Z,1.30
2019-02-15T07:59:28.074Z,1.40
2019-02-15T08:02:01.834Z,1.50
2019-02-15T08:04:26.971Z,1.60
2019-02-15T08:06:56.564Z,1.70
2019-02-15T08:09:25.122Z,1.80
2019-02-15T08:11:53.942Z,1.90
2019-02-15T08:14:23.649Z,2.10
2019-02-15T08:16:52.268Z,2.30
2019-02-15T08:19:21.446Z,2.40
2019-02-15T08:21:50.540Z,2.40
2019-02-15T08:24:19.030Z,2.50
2019-02-15T08:26:47.643Z,2.70
2019-02-15T08:29:16.133Z,2.80
2019-02-15T08:31:44.716Z,3.00
2019-02-15T08:34:13.210Z,3.10
2019-02-15T08:36:41.798Z,3.30
2019-02-15T08:39:10.353Z,3.40
2019-02-15T08:41:38.866Z,3.60
2019-02-15T08:44:07.355Z,3.70
2019-02-15T08:46:35.937Z,3.90
2019-02-15T08:49:04.485Z,4.00
2019-02-15T08:51:33.068Z,4.20
2019-02-15T08:54:01.557Z,4.40
2019-02-15T08:56:30.067Z,4.70
2019-02-15T08:58:58.626Z,4.90
2019-02-15T09:01:27.186Z,5.20
2019-02-15T09:03:55.772Z,5.40
2019-02-15T09:06:24.349Z,5.60
2019-02-15T09:08:52.917Z,5.80
2019-02-15T09:11:21.466Z,6.00
2019-02-15T09:13:50.055Z,6.20
2019-02-15T09:16:18.597Z,6.40
2019-02-15T09:18:47.106Z,6.50
2019-02-15T09:21:15.679Z,6.70
2019-02-15T09:23:44.262Z,6.90
2019-02-15T09:26:18.242Z,7.10
2019-02-15T09:28:44.706Z,7.20
2019-02-15T09:31:13.270Z,7.40
2019-02-15T09:33:41.854Z,7.60
2019-02-15T09:36:10.416Z,7.70
2019-02-15T09:38:38.921Z,7.90
2019-02-15T09:41:07.480Z,8.00
2019-02-15T09:43:35.981Z,8.10
2019-02-15T09:46:04.538Z,8.30
2019-02-15T09:48:33.119Z,8.40
2019-02-15T09:51:01.751Z,8.60
2019-02-15T09:53:30.329Z,8.70
2019-02-15T09:55:58.813Z,8.80
2019-02-15T09:58:27.323Z,8.90
2019-02-15T10:00:55.878Z,9.00
2019-02-15T10:03:24.457Z,9.10
2019-02-15T10:05:52.939Z,9.20
2019-02-15T10:08:21.467Z,9.20
2019-02-15T10:10:50.085Z,9.30
2019-02-15T10:13:18.595Z,9.40
2019-02-15T10:15:47.157Z,9.60
2019-02-15T10:18:15.745Z,9.80
2019-02-15T10:20:44.288Z,9.80
2019-02-15T10:23:12.798Z,9.90
2019-02-15T10:25:41.353Z,10.00
2019-02-15T10:28:09.862Z,10.00
2019-02-15T10:30:38.336Z,9.90
2019-02-15T10:33:06.848Z,10.10
2019-02-15T10:35:35.406Z,10.10
2019-02-15T10:38:03.983Z,10.30
2019-02-15T10:40:32.543Z,10.40
2019-02-15T10:43:01.048Z,10.40
2019-02-15T10:45:29.606Z,10.50
2019-02-15T10:47:59.256Z,10.70
2019-02-15T10:50:27.854Z,10.70
2019-02-15T10:52:56.361Z,10.80
2019-02-15T10:55:24.859Z,10.90
2019-02-15T10:57:53.443Z,11.00
2019-02-15T11:00:22.076Z,11.10
2019-02-15T11:02:50.652Z,11.10
2019-02-15T11:05:19.364Z,11.20
2019-02-15T11:07:48.101Z,11.30
2019-02-15T11:10:16.758Z,11.40
2019-02-15T11:12:45.400Z,11.50
2019-02-15T11:15:18.245Z,11.50
2019-02-15T11:17:46.766Z,11.60
2019-02-15T11:20:17.317Z,11.70
2019-02-15T11:22:45.891Z,11.70
2019-02-15T11:25:15.598Z,11.90
2019-02-15T11:27:44.158Z,12.00
2019-02-15T11:30:16.695Z,12.10
2019-02-15T11:32:45.321Z,12.20
2019-02-15T11:35:14.641Z,12.20
2019-02-15T11:37:43.204Z,12.20
2019-02-15T11:40:13.858Z,12.30
2019-02-15T11:42:42.418Z,12.30
2019-02-15T11:45:12.944Z,12.50
2019-02-15T11:47:41.513Z,12.50
2019-02-15T11:50:11.876Z,12.60
2019-02-15T11:52:40.494Z,12.70
2019-02-15T11:55:10.339Z,12.80
2019-02-15T11:57:38.906Z,12.90
2019-02-15T12:00:14.138Z,12.90
2019-02-15T12:02:41.743Z,12.90
2019-02-15T12:05:10.398Z,12.90
2019-02-15T12:07:38.969Z,12.90
2019-02-15T12:10:09.885Z,13.00
2019-02-15T12:12:38.380Z,13.10
2019-02-15T12:15:08.810Z,13.10
2019-02-15T12:17:37.445Z,13.20
2019-02-15T12:20:09.407Z,13.00
2019-02-15T12:22:37.962Z,13.00
2019-02-15T12:25:07.409Z,13.00
2019-02-15T12:27:36.049Z,13.10
2019-02-15T12:30:06.771Z,13.10
2019-02-15T12:32:35.346Z,13.20
2019-02-15T12:35:04.059Z,13.30
2019-02-15T12:37:32.620Z,13.30
2019-02-15T12:40:01.214Z,13.40
2019-02-15T12:42:29.774Z,13.50
2019-02-15T12:44:58.357Z,13.40
2019-02-15T12:47:26.911Z,13.40
2019-02-15T12:49:55.844Z,13.40
2019-02-15T12:52:24.389Z,13.30
2019-02-15T12:54:52.904Z,13.40
2019-02-15T12:57:21.466Z,13.50
2019-02-15T12:59:50.042Z,13.60
2019-02-15T13:02:18.528Z,13.60
2019-02-15T13:04:47.104Z,13.60
2019-02-15T13:07:15.677Z,13.60
2019-02-15T13:09:44.267Z,13.60
2019-02-15T13:12:12.828Z,13.50
2019-02-15T13:14:41.414Z,13.50
2019-02-15T13:17:10.042Z,13.40
2019-02-15T13:19:38.629Z,13.40
2019-02-15T13:22:07.190Z,13.50
2019-02-15T13:24:35.774Z,13.50
2019-02-15T13:27:05.366Z,13.60
2019-02-15T13:32:08.923Z,13.60
2019-02-15T13:34:37.514Z,13.60
2019-02-15T13:37:06.079Z,13.70
2019-02-15T13:39:34.657Z,13.60
2019-02-15T13:42:03.229Z,13.60
2019-02-15T13:44:31.825Z,13.60
2019-02-15T13:47:01.398Z,13.60
2019-02-15T13:49:29.975Z,13.70
2019-02-15T13:51:59.765Z,13.60
2019-02-15T13:54:28.341Z,13.90
2019-02-15T13:56:56.841Z,13.90
2019-02-15T13:59:25.405Z,14.00
2019-02-15T14:01:54.268Z,14.10
2019-02-15T14:04:22.830Z,14.00
2019-02-15T14:06:55.282Z,14.00
2019-02-15T14:09:24.086Z,14.00
2019-02-15T14:11:52.596Z,14.10
2019-02-15T14:14:21.169Z,14.00
2019-02-15T14:16:49.753Z,14.00
2019-02-15T14:19:18.239Z,14.00
2019-02-15T14:21:47.098Z,14.10
2019-02-15T14:24:15.664Z,14.10
2019-02-15T14:26:44.249Z,14.20
2019-02-15T14:29:12.804Z,14.30
2019-02-15T14:31:41.405Z,14.30
2019-02-15T14:34:09.966Z,14.20
2019-02-15T14:36:38.555Z,14.20
2019-02-15T14:39:08.830Z,14.10
2019-02-15T14:41:37.346Z,14.10
2019-02-15T14:44:05.905Z,14.10
2019-02-15T14:46:34.414Z,14.00
2019-02-15T14:49:02.910Z,14.10
2019-02-15T14:51:31.485Z,14.10
2019-02-15T14:54:00.056Z,14.20
2019-02-15T14:56:28.663Z,14.20
2019-02-15T14:58:57.227Z,14.10
2019-02-15T15:01:25.806Z,14.10
2019-02-15T15:03:54.380Z,14.10
2019-02-15T15:06:22.955Z,14.10
2019-02-15T15:08:51.525Z,14.10
2019-02-15T15:11:20.116Z,14.00
2019-02-15T15:13:48.665Z,13.90
2019-02-15T15:16:17.254Z,13.80
2019-02-15T15:18:45.818Z,13.80
2019-02-15T15:21:14.399Z,13.70
2019-02-15T15:23:42.966Z,13.60
2019-02-15T15:26:12.266Z,13.60
2019-02-15T15:28:40.846Z,13.70
2019-02-15T15:31:11.281Z,13.60
2019-02-15T15:33:39.665Z,13.60
2019-02-15T15:36:08.250Z,13.50
2019-02-15T15:38:36.819Z,13.50
2019-02-15T15:41:05.395Z,13.30
2019-02-15T15:43:33.961Z,13.50
2019-02-15T15:46:02.551Z,13.30
2019-02-15T15:48:31.118Z,13.20
2019-02-15T15:50:59.639Z,13.20
2019-02-15T15:53:28.210Z,13.00
2019-02-15T15:55:56.798Z,13.00
2019-02-15T15:58:25.361Z,12.80
2019-02-15T16:00:53.939Z,12.70
2019-02-15T16:03:22.508Z,12.60
2019-02-15T16:05:51.088Z,12.50
2019-02-15T16:08:19.657Z,12.40
2019-02-15T16:10:48.155Z,12.30
2019-02-15T16:13:16.749Z,12.30
2019-02-15T16:15:45.314Z,12.20
2019-02-15T16:18:13.906Z,12.20
2019-02-15T16:20:42.491Z,12.20
2019-02-15T16:23:11.074Z,12.10
2019-02-15T16:25:39.629Z,11.90
2019-02-15T16:28:08.249Z,11.80
2019-02-15T16:30:36.821Z,11.70
2019-02-15T16:33:05.410Z,11.60
2019-02-15T16:35:33.968Z,11.40
2019-02-15T16:38:02.479Z,11.30
2019-02-15T16:40:31.107Z,11.10
2019-02-15T16:42:59.623Z,11.00
2019-02-15T16:45:28.186Z,10.80
2019-02-15T16:47:56.774Z,10.70
2019-02-15T16:50:25.337Z,10.60
2019-02-15T16:52:53.917Z,10.50
2019-02-15T16:55:22.402Z,10.30
2019-02-15T16:57:50.901Z,10.10
2019-02-15T17:00:19.463Z,10.00
2019-02-15T17:02:48.038Z,9.80
2019-02-15T17:05:16.593Z,9.70
2019-02-15T17:07:45.170Z,9.60
2019-02-15T17:10:14.078Z,9.50
2019-02-15T17:12:42.658Z,9.30
2019-02-15T17:15:13.525Z,9.20
2019-02-15T17:17:42.175Z,9.10
2019-02-15T17:20:10.973Z,9.00
2019-02-15T17:22:39.479Z,8.90
2019-02-15T17:25:11.981Z,8.90
2019-02-15T17:27:40.558Z,8.80
2019-02-15T17:30:12.215Z,8.70
2019-02-15T17:32:40.818Z,8.60
2019-02-15T17:35:10.523Z,8.50
2019-02-15T17:37:39.175Z,8.40
2019-02-15T17:40:13.071Z,8.30
2019-02-15T17:42:41.649Z,8.20
2019-02-15T17:45:11.346Z,8.10
2019-02-15T17:47:40.000Z,8.10
2019-02-15T17:50:12.380Z,8.10
2019-02-15T17:52:41.031Z,8.10
2019-02-15T17:55:10.431Z,8.10
2019-02-15T17:57:39.158Z,8.10
2019-02-15T18:00:10.822Z,8.20
2019-02-15T18:02:39.406Z,8.10
2019-02-15T18:05:11.250Z,8.10
2019-02-15T18:07:39.834Z,7.90
2019-02-15T18:10:08.542Z,7.90
2019-02-15T18:12:37.251Z,7.80
2019-02-15T18:15:06.545Z,7.70
2019-02-15T18:17:35.127Z,7.60
2019-02-15T18:20:04.731Z,7.50
2019-02-15T18:22:33.327Z,7.40
2019-02-15T18:25:01.877Z,7.40
2019-02-15T18:27:30.460Z,7.30
2019-02-15T18:29:59.020Z,7.20
2019-02-15T18:32:27.602Z,7.10
2019-02-15T18:34:56.163Z,7.10
2019-02-15T18:37:24.741Z,7.00
2019-02-15T18:39:53.238Z,7.00
2019-02-15T18:42:21.880Z,6.90
2019-02-15T18:44:50.414Z,6.90
2019-02-15T18:47:18.953Z,6.80
2019-02-15T18:49:47.474Z,6.70
2019-02-15T18:52:16.034Z,6.70
2019-02-15T18:54:45.058Z,6.70
2019-02-15T18:57:13.618Z,6.60
2019-02-15T18:59:42.195Z,6.60
2019-02-15T19:02:10.788Z,6.60
2019-02-15T19:04:39.349Z,6.50
2019-02-15T19:07:07.928Z,6.50
2019-02-15T19:09:36.516Z,6.40
2019-02-15T19:12:05.098Z,6.40
2019-02-15T19:14:33.686Z,6.30
2019-02-15T19:17:02.250Z,6.30
2019-02-15T19:19:31.546Z,6.30
2019-02-15T19:22:00.180Z,6.30
2019-02-15T19:24:28.692Z,6.30
2019-02-15T19:26:57.268Z,6.30
2019-02-15T19:29:25.843Z,6.30
2019-02-15T19:31:54.334Z,6.20
2019-02-15T19:34:22.839Z,6.20
2019-02-15T19:36:51.333Z,6.20
2019-02-15T19:39:19.909Z,6.20
2019-02-15T19:41:48.546Z,6.20
2019-02-15T19:44:17.129Z,6.10
2019-02-15T19:46:45.689Z,6.10
2019-02-15T19:49:14.196Z,6.00
2019-02-15T19:51:42.691Z,6.00
2019-02-15T19:54:11.281Z,6.00
2019-02-15T19:56:39.849Z,5.90
2019-02-15T19:59:08.432Z,5.90
2019-02-15T20:01:36.998Z,5.90
2019-02-15T20:04:06.689Z,5.90
2019-02-15T20:06:35.274Z,5.90
2019-02-15T20:09:05.494Z,5.90
2019-02-15T20:11:36.085Z,5.90
2019-02-15T20:14:04.685Z,5.80
2019-02-15T20:16:33.243Z,5.80
2019-02-15T20:19:01.825Z,5.70
2019-02-15T20:21:30.646Z,5.60
2019-02-15T20:23:59.233Z,5.60
2019-02-15T20:26:27.795Z,5.60
2019-02-15T20:28:56.441Z,5.50
2019-02-15T20:31:24.934Z,5.50
2019-02-15T20:33:53.525Z,5.40
2019-02-15T20:36:22.006Z,5.40
2019-02-15T20:38:50.605Z,5.40
2019-02-15T20:41:19.191Z,5.30
2019-02-15T20:43:47.773Z,5.30
2019-02-15T20:46:16.261Z,5.30
2019-02-15T20:48:44.762Z,5.30
2019-02-15T20:51:13.341Z,5.20
2019-02-15T20:53:41.838Z,5.20
2019-02-15T20:56:10.447Z,5.10
2019-02-15T20:58:39.299Z,5.10
2019-02-15T21:01:07.895Z,5.10
2019-02-15T21:03:36.473Z,5.10
2019-02-15T21:06:05.065Z,5.00
2019-02-15T21:08:33.629Z,5.00
2019-02-15T21:11:02.153Z,5.00
2019-02-15T21:13:30.715Z,4.90
2019-02-15T21:15:59.306Z,4.90
2019-02-15T21:18:27.868Z,4.90
2019-02-15T21:20:56.374Z,4.90
2019-02-15T21:23:24.941Z,4.80
2019-02-15T21:25:53.463Z,4.80
2019-02-15T21:28:22.029Z,4.80
2019-02-15T21:30:50.541Z,4.80
2019-02-15T21:33:19.040Z,4.80
2019-02-15T21:35:47.626Z,4.80
2019-02-15T21:38:16.121Z,4.70
2019-02-15T21:40:44.707Z,4.70
2019-02-15T21:43:13.196Z,4.70
2019-02-15T21:45:41.705Z,4.60
2019-02-15T21:48:10.190Z,4.60
2019-02-15T21:50:38.778Z,4.60
2019-02-15T21:53:07.268Z,4.50
2019-02-15T21:55:35.922Z,4.50
2019-02-15T21:58:04.499Z,4.50
2019-02-15T22:00:33.146Z,4.40
2019-02-15T22:03:01.709Z,4.40
2019-02-15T22:05:30.227Z,4.40
2019-02-15T22:07:58.798Z,4.40
2019-02-15T22:10:27.451Z,4.30
2019-02-15T22:12:56.023Z,4.30
2019-02-15T22:15:24.618Z,4.30
2019-02-15T22:17:53.178Z,4.30
2019-02-15T22:20:26.848Z,4.20
2019-02-15T22:22:51.898Z,4.20
2019-02-15T22:25:20.501Z,4.20
2019-02-15T22:27:48.989Z,4.20
2019-02-15T22:30:20.978Z,4.20
2019-02-15T22:32:49.545Z,4.30
2019-02-15T22:35:18.057Z,4.20
2019-02-15T22:37:46.549Z,4.20
2019-02-15T22:40:20.663Z,4.20
2019-02-15T22:42:49.238Z,4.20
2019-02-15T22:45:17.819Z,4.10
2019-02-15T22:47:46.389Z,4.10
2019-02-15T22:50:14.986Z,4.10
2019-02-15T22:52:43.481Z,4.10
2019-02-15T22:55:11.998Z,4.00
2019-02-15T22:57:40.571Z,4.00
2019-02-15T23:00:12.997Z,4.00
2019-02-15T23:02:41.857Z,4.00
2019-02-15T23:05:10.418Z,3.90
2019-02-15T23:07:38.946Z,3.90
2019-02-15T23:10:08.790Z,3.80
2019-02-15T23:12:37.390Z,3.80
2019-02-15T23:15:06.857Z,3.80
2019-02-15T23:17:35.367Z,3.80
2019-02-15T23:20:04.941Z,3.80
2019-02-15T23:22:33.528Z,3.70
2019-02-15T23:25:02.093Z,3.70
2019-02-15T23:27:30.682Z,3.70
2019-02-15T23:29:59.350Z,3.70
2019-02-15T23:32:27.874Z,3.70
2019-02-15T23:34:56.377Z,3.70
2019-02-15T23:37:24.883Z,3.70
2019-02-15T23:39:53.446Z,3.60
2019-02-15T23:42:22.029Z,3.60
2019-02-15T23:44:50.518Z,3.60
2019-02-15T23:47:19.105Z,3.60
2019-02-15T23:49:47.680Z,3.60
2019-02-15T23:52:16.261Z,3.60
2019-02-15T23:54:44.745Z,3.60
2019-02-15T23:57:13.325Z,3.60
2019-02-15T23:59:41.890Z,3.50
